Time,TemperatureF,DewpointF,PressureIn,WindDirection,WindDirectionDegrees,WindSpeedMPH,WindSpeedGustMPH,Humidity,HourlyPrecipIn,Conditions,Clouds,dailyrainin,SoftwareType,DateUTC
2013-06-25 00:11:00,74.0,70.0,30.11,SE,131,0.0,0.0,87,0.00,,,0.00,,2013-06-25 04:11:00,
2013-06-25 00:52:00,73.0,69.0,30.11,SE,131,0.0,0.0,87,0.00,,,0.00,,2013-06-25 04:52:00,
2013-06-25 01:01:00,73.0,69.0,30.11,SE,131,0.0,0.0,87,0.00,,,0.00,,2013-06-25 05:01:00,
2013-06-25 01:44:00,73.0,69.0,30.11,SE,131,0.0,0.0,87,0.00,,,0.00,,2013-06-25 05:44:00,
2013-06-25 01:52:00,72.0,69.0,30.11,SE,131,0.0,0.0,89,0.00,,,0.00,,2013-06-25 05:52:00,
2013-06-25 02:01:00,72.0,69.0,30.10,SE,131,0.0,0.0,90,0.00,,,0.00,,2013-06-25 06:01:00,
2013-06-25 02:43:00,72.0,69.0,30.10,SE,131,0.0,0.0,91,0.00,,,0.00,,2013-06-25 06:43:00,
2013-06-25 03:02:00,72.0,69.0,30.10,SE,131,0.0,0.0,91,0.00,,,0.00,,2013-06-25 07:02:00,
2013-06-25 03:22:00,71.0,68.0,30.09,SE,131,0.0,0.0,91,0.00,,,0.00,,2013-06-25 07:22:00,
2013-06-25 03:33:00,71.0,68.0,30.09,SE,131,0.0,0.0,91,0.00,,,0.00,,2013-06-25 07:33:00,
2013-06-25 03:43:00,71.0,68.0,30.09,SE,131,0.0,0.0,91,0.00,,,0.00,,2013-06-25 07:43:00,
2013-06-25 03:52:00,71.0,68.0,30.09,SE,131,0.0,0.0,91,0.00,,,0.00,,2013-06-25 07:52:00,
2013-06-25 04:11:00,71.0,69.0,30.09,SE,131,0.0,0.0,92,0.00,,,0.00,,2013-06-25 08:11:00,
2013-06-25 04:53:00,70.0,68.0,30.09,SE,131,0.0,0.0,93,0.00,,,0.00,,2013-06-25 08:53:00,
2013-06-25 05:12:00,71.0,69.0,30.08,SE,131,0.0,0.0,93,0.00,,,0.00,,2013-06-25 09:12:00,
2013-06-25 05:43:00,70.0,68.0,30.09,SE,131,0.0,0.0,94,0.00,,,0.00,,2013-06-25 09:43:00,
2013-06-25 05:52:00,70.0,68.0,30.09,SE,131,0.0,0.0,94,0.00,,,0.00,,2013-06-25 09:52:00,
2013-06-25 06:01:00,70.0,68.0,30.09,SE,131,0.0,0.0,94,0.00,,,0.00,,2013-06-25 10:01:00,
2013-06-25 06:33:00,70.0,68.0,30.09,SE,131,0.0,0.0,94,0.00,,,0.00,,2013-06-25 10:33:00,
2013-06-25 06:42:00,70.0,68.0,30.09,SE,131,0.0,0.0,94,0.00,,,0.00,,2013-06-25 10:42:00,
2013-06-25 06:52:00,70.0,68.0,30.09,SE,131,0.0,0.0,94,0.00,,,0.00,,2013-06-25 10:52:00,
2013-06-25 07:02:00,70.0,68.0,30.09,SE,131,0.0,0.0,94,0.00,,,0.00,,2013-06-25 11:02:00,
2013-06-25 07:43:00,70.0,68.0,30.10,SE,131,0.0,0.0,94,0.00,,,0.00,,2013-06-25 11:43:00,
2013-06-25 08:02:00,71.0,69.0,30.10,SE,131,0.0,0.0,94,0.00,,,0.00,,2013-06-25 12:02:00,
2013-06-25 09:12:00,74.0,70.0,30.11,NE,42,0.0,0.0,88,0.00,,,0.00,,2013-06-25 13:12:00,
2013-06-25 10:02:00,75.0,70.0,30.12,NE,45,0.0,0.0,84,0.00,,,0.00,,2013-06-25 14:02:00,
2013-06-25 10:34:00,77.0,71.0,30.12,NNE,31,0.0,0.0,81,0.00,,,0.00,,2013-06-25 14:34:00,
2013-06-25 10:53:00,77.0,71.0,30.12,SE,143,0.0,0.0,81,0.00,,,0.00,,2013-06-25 14:53:00,
2013-06-25 11:32:00,78.0,70.0,30.11,NE,35,0.0,0.0,77,0.00,,,0.00,,2013-06-25 15:32:00,
2013-06-25 11:44:00,79.0,71.0,30.11,ESE,117,0.0,0.0,77,0.00,,,0.00,,2013-06-25 15:44:00,
2013-06-25 12:03:00,80.0,71.0,30.11,NNE,18,0.0,0.0,73,0.00,,,0.00,,2013-06-25 16:03:00,
2013-06-25 12:12:00,80.0,71.0,30.11,NE,37,0.0,0.0,73,0.00,,,0.00,,2013-06-25 16:12:00,
2013-06-25 12:35:00,80.0,71.0,30.11,ESE,103,0.0,0.0,73,0.00,,,0.00,,2013-06-25 16:35:00,
2013-06-25 13:01:00,81.0,70.0,30.10,ENE,65,0.0,0.0,70,0.00,,,0.00,,2013-06-25 17:01:00,
2013-06-25 13:44:00,82.0,70.0,30.08,NNE,25,0.0,0.0,68,0.00,,,0.00,,2013-06-25 17:44:00,
2013-06-25 13:53:00,82.0,70.0,30.08,NNE,25,0.0,0.0,67,0.00,,,0.00,,2013-06-25 17:53:00,
2013-06-25 14:10:00,80.0,69.0,30.07,NNE,24,0.0,0.0,70,0.00,,,0.00,,2013-06-25 18:10:00,
2013-06-25 14:44:00,80.0,69.0,30.07,NNE,24,0.0,0.0,70,0.00,,,0.00,,2013-06-25 18:44:00,
2013-06-25 14:52:00,80.0,69.0,30.07,NNE,24,0.0,0.0,70,0.00,,,0.00,,2013-06-25 18:52:00,
2013-06-25 15:01:00,80.0,69.0,30.07,NNE,24,0.0,0.0,70,0.00,,,0.00,,2013-06-25 19:01:00,
2013-06-25 15:44:00,80.0,71.0,30.05,NNE,32,0.0,0.0,73,0.00,,,0.00,,2013-06-25 19:44:00,
2013-06-25 17:43:00,77.0,73.0,30.01,WSW,246,0.0,0.0,87,0.00,,,0.93,,2013-06-25 21:43:00,
2013-06-25 17:53:00,77.0,73.0,30.01,WSW,246,0.0,0.0,87,0.00,,,0.93,,2013-06-25 21:53:00,
2013-06-25 18:11:00,78.0,73.0,30.01,WSW,246,0.0,0.0,84,0.00,,,0.93,,2013-06-25 22:11:00,
2013-06-25 18:22:00,78.0,73.0,30.01,WSW,246,0.0,0.0,84,0.00,,,0.93,,2013-06-25 22:22:00,
2013-06-25 18:34:00,80.0,74.0,30.00,WSW,246,0.0,0.0,83,0.00,,,0.93,,2013-06-25 22:34:00,
2013-06-25 19:34:00,78.0,73.0,30.01,WSW,246,0.0,0.0,85,0.00,,,0.93,,2013-06-25 23:34:00,
2013-06-25 19:44:00,78.0,73.0,30.01,WSW,246,0.0,0.0,85,0.00,,,0.93,,2013-06-25 23:44:00,
2013-06-25 19:52:00,78.0,73.0,30.01,WSW,246,0.0,0.0,85,0.00,,,0.93,,2013-06-25 23:52:00,
2013-06-25 20:02:00,77.0,72.0,30.01,WSW,246,0.0,0.0,85,0.00,,,0.93,,2013-06-26 00:02:00,
2013-06-25 20:11:00,77.0,72.0,30.00,WSW,246,0.0,0.0,85,0.00,,,0.93,,2013-06-26 00:11:00,
2013-06-25 20:22:00,77.0,73.0,29.99,WSW,237,0.0,0.0,88,0.00,,,0.93,,2013-06-26 00:22:00,
2013-06-25 20:33:00,77.0,73.0,29.99,WSW,237,0.0,0.0,88,0.00,,,0.93,,2013-06-26 00:33:00,
2013-06-25 20:42:00,77.0,73.0,29.99,WSW,237,0.0,0.0,88,0.00,,,0.93,,2013-06-26 00:42:00,
2013-06-25 20:52:00,77.0,74.0,30.00,SW,232,0.0,0.0,89,0.00,,,0.93,,2013-06-26 00:52:00,
2013-06-25 21:01:00,77.0,74.0,30.01,SW,232,0.0,0.0,90,0.00,,,0.93,,2013-06-26 01:01:00,
2013-06-25 21:11:00,77.0,74.0,30.01,SW,232,0.0,0.0,90,0.00,,,0.93,,2013-06-26 01:11:00,
2013-06-25 21:22:00,77.0,74.0,30.01,SW,232,0.0,0.0,89,0.00,,,0.93,,2013-06-26 01:22:00,
2013-06-25 21:33:00,76.0,73.0,30.00,SW,232,0.0,0.0,90,0.00,,,0.93,,2013-06-26 01:33:00,
2013-06-25 22:02:00,75.0,72.0,30.00,SW,232,0.0,0.0,90,0.00,,,0.93,,2013-06-26 02:02:00,
2013-06-25 22:34:00,75.0,72.0,30.01,SW,232,0.0,0.0,91,0.00,,,0.93,,2013-06-26 02:34:00,
2013-06-25 22:43:00,75.0,73.0,30.01,SW,232,0.0,0.0,92,0.00,,,0.93,,2013-06-26 02:43:00,
2013-06-25 23:02:00,74.0,72.0,30.01,SW,232,0.0,0.0,92,0.00,,,0.93,,2013-06-26 03:02:00,
2013-06-25 23:22:00,74.0,72.0,30.02,SW,232,0.0,0.0,92,0.00,,,0.93,,2013-06-26 03:22:00,
2013-06-25 23:43:00,73.0,71.0,30.01,SW,232,0.0,0.0,92,0.00,,,0.93,,2013-06-26 03:43:00,
2013-06-25 23:52:00,73.0,70.0,30.01,SW,232,0.0,0.0,91,0.00,,,0.93,,2013-06-26 03:52:00,